sensor_id;sensor_type;location;lat;lon;timestamp;P1;durP1;ratioP1;P2;durP2;ratioP2
52480;SDS011;38393;52.404;13.532;2023-06-01T00:01:40;6.38;;;2.17;;
52480;SDS011;38393;52.404;13.532;2023-06-01T00:04:06;3.75;;;2.03;;
52480;SDS011;38393;52.404;13.532;2023-06-01T00:06:32;3.15;;;2.03;;
52480;SDS011;38393;52.404;13.532;2023-06-01T00:08:58;4.38;;;2.20;;
52480;SDS011;38393;52.404;13.532;2023-06-01T00:11:24;3.00;;;1.70;;
52480;SDS011;38393;52.404;13.532;2023-06-01T00:13:50;3.75;;;2.28;;
52480;SDS011;38393;52.404;13.532;2023-06-01T00:16:16;4.45;;;2.13;;
52480;SDS011;38393;52.404;13.532;2023-06-01T00:18:42;3.60;;;2.10;;
52480;SDS011;38393;52.404;13.532;2023-06-01T00:21:08;7.53;;;2.58;;
52480;SDS011;38393;52.404;13.532;2023-06-01T00:23:34;4.80;;;2.13;;
52480;SDS011;38393;52.404;13.532;2023-06-01T00:26:00;6.07;;;2.63;;
52480;SDS011;38393;52.404;13.532;2023-06-01T00:28:26;4.80;;;2.55;;
52480;SDS011;38393;52.404;13.532;2023-06-01T00:30:52;4.53;;;2.35;;
52480;SDS011;38393;52.404;13.532;2023-06-01T00:33:21;3.67;;;1.98;;
52480;SDS011;38393;52.404;13.532;2023-06-01T00:35:47;3.95;;;1.98;;
52480;SDS011;38393;52.404;13.532;2023-06-01T00:38:12;3.55;;;1.95;;
52480;SDS011;38393;52.404;13.532;2023-06-01T00:40:38;4.40;;;2.05;;
52480;SDS011;38393;52.404;13.532;2023-06-01T00:43:03;5.03;;;2.00;;
52480;SDS011;38393;52.404;13.532;2023-06-01T00:45:29;6.05;;;1.77;;
52480;SDS011;38393;52.404;13.532;2023-06-01T00:47:55;4.05;;;2.13;;
52480;SDS011;38393;52.404;13.532;2023-06-01T00:50:21;5.35;;;2.13;;
52480;SDS011;38393;52.404;13.532;2023-06-01T00:52:46;6.80;;;2.03;;
52480;SDS011;38393;52.404;13.532;2023-06-01T00:55:14;4.35;;;2.00;;
52480;SDS011;38393;52.404;13.532;2023-06-01T00:57:39;3.70;;;1.88;;
52480;SDS011;38393;52.404;13.532;2023-06-01T01:00:07;2.92;;;1.77;;
52480;SDS011;38393;52.404;13.532;2023-06-01T01:02:35;5.18;;;1.70;;
52480;SDS011;38393;52.404;13.532;2023-06-01T01:05:03;2.80;;;1.70;;
52480;SDS011;38393;52.404;13.532;2023-06-01T01:07:55;3.77;;;1.60;;
52480;SDS011;38393;52.404;13.532;2023-06-01T01:13:13;4.10;;;1.90;;
52480;SDS011;38393;52.404;13.532;2023-06-01T01:15:57;2.38;;;1.50;;
52480;SDS011;38393;52.404;13.532;2023-06-01T01:18:36;3.15;;;1.88;;
52480;SDS011;38393;52.404;13.532;2023-06-01T01:21:06;3.55;;;1.90;;
52480;SDS011;38393;52.404;13.532;2023-06-01T01:24:15;3.17;;;1.80;;
52480;SDS011;38393;52.404;13.532;2023-06-01T01:26:56;3.20;;;1.70;;
52480;SDS011;38393;52.404;13.532;2023-06-01T01:29:42;3.40;;;1.77;;
52480;SDS011;38393;52.404;13.532;2023-06-01T01:32:10;4.72;;;2.00;;
52480;SDS011;38393;52.404;13.532;2023-06-01T01:34:37;6.97;;;1.83;;
52480;SDS011;38393;52.404;13.532;2023-06-01T01:37:05;2.80;;;2.00;;
52480;SDS011;38393;52.404;13.532;2023-06-01T01:39:30;4.33;;;2.00;;
52480;SDS011;38393;52.404;13.532;2023-06-01T01:41:56;4.30;;;2.00;;
52480;SDS011;38393;52.404;13.532;2023-06-01T01:44:21;4.07;;;1.90;;
52480;SDS011;38393;52.404;13.532;2023-06-01T01:46:57;2.80;;;1.77;;
52480;SDS011;38393;52.404;13.532;2023-06-01T01:49:40;3.77;;;1.87;;
52480;SDS011;38393;52.404;13.532;2023-06-01T01:52:18;4.63;;;1.70;;
52480;SDS011;38393;52.404;13.532;2023-06-01T01:55:00;4.73;;;2.47;;
52480;SDS011;38393;52.404;13.532;2023-06-01T01:57:27;3.77;;;1.77;;
52480;SDS011;38393;52.404;13.532;2023-06-01T01:59:55;3.87;;;1.83;;
52480;SDS011;38393;52.404;13.532;2023-06-01T02:02:21;4.07;;;2.20;;
52480;SDS011;38393;52.404;13.532;2023-06-01T02:04:47;3.30;;;1.87;;
52480;SDS011;38393;52.404;13.532;2023-06-01T02:07:12;2.90;;;1.83;;
52480;SDS011;38393;52.404;13.532;2023-06-01T02:09:38;4.80;;;2.00;;
52480;SDS011;38393;52.404;13.532;2023-06-01T02:12:05;2.77;;;1.83;;
52480;SDS011;38393;52.404;13.532;2023-06-01T02:14:31;4.40;;;2.13;;
52480;SDS011;38393;52.404;13.532;2023-06-01T02:16:57;5.13;;;2.10;;
52480;SDS011;38393;52.404;13.532;2023-06-01T02:19:22;2.77;;;2.00;;
52480;SDS011;38393;52.404;13.532;2023-06-01T02:21:48;3.60;;;1.90;;
52480;SDS011;38393;52.404;13.532;2023-06-01T02:24:13;3.50;;;2.13;;
52480;SDS011;38393;52.404;13.532;2023-06-01T02:26:39;5.73;;;2.00;;
52480;SDS011;38393;52.404;13.532;2023-06-01T02:29:05;3.87;;;2.07;;
52480;SDS011;38393;52.404;13.532;2023-06-01T02:31:34;4.47;;;2.10;;
52480;SDS011;38393;52.404;13.532;2023-06-01T02:34:01;3.73;;;2.00;;
52480;SDS011;38393;52.404;13.532;2023-06-01T02:36:27;2.77;;;2.27;;
52480;SDS011;38393;52.404;13.532;2023-06-01T02:38:54;3.23;;;2.10;;
52480;SDS011;38393;52.404;13.532;2023-06-01T02:41:22;4.13;;;2.00;;
52480;SDS011;38393;52.404;13.532;2023-06-01T02:43:48;3.83;;;1.90;;
52480;SDS011;38393;52.404;13.532;2023-06-01T02:46:15;4.30;;;2.40;;
52480;SDS011;38393;52.404;13.532;2023-06-01T02:48:41;4.30;;;2.07;;
52480;SDS011;38393;52.404;13.532;2023-06-01T02:51:06;4.57;;;2.20;;
52480;SDS011;38393;52.404;13.532;2023-06-01T02:53:32;6.00;;;2.20;;
52480;SDS011;38393;52.404;13.532;2023-06-01T02:55:57;3.47;;;2.00;;
52480;SDS011;38393;52.404;13.532;2023-06-01T02:58:23;5.17;;;2.40;;
52480;SDS011;38393;52.404;13.532;2023-06-01T03:00:48;4.07;;;2.53;;
52480;SDS011;38393;52.404;13.532;2023-06-01T03:03:15;5.83;;;2.20;;
52480;SDS011;38393;52.404;13.532;2023-06-01T03:05:41;4.63;;;2.33;;
52480;SDS011;38393;52.404;13.532;2023-06-01T03:08:08;5.27;;;2.60;;
52480;SDS011;38393;52.404;13.532;2023-06-01T03:10:33;4.40;;;2.30;;
52480;SDS011;38393;52.404;13.532;2023-06-01T03:12:59;4.77;;;2.13;;
52480;SDS011;38393;52.404;13.532;2023-06-01T03:15:24;6.20;;;2.60;;
52480;SDS011;38393;52.404;13.532;2023-06-01T03:17:52;7.27;;;2.50;;
52480;SDS011;38393;52.404;13.532;2023-06-01T03:20:17;6.47;;;2.40;;
52480;SDS011;38393;52.404;13.532;2023-06-01T03:22:43;6.60;;;2.40;;
52480;SDS011;38393;52.404;13.532;2023-06-01T03:25:10;5.03;;;2.50;;
52480;SDS011;38393;52.404;13.532;2023-06-01T03:27:37;5.13;;;2.77;;
52480;SDS011;38393;52.404;13.532;2023-06-01T03:30:04;8.03;;;2.70;;
52480;SDS011;38393;52.404;13.532;2023-06-01T03:32:34;5.10;;;2.53;;
52480;SDS011;38393;52.404;13.532;2023-06-01T03:35:01;4.87;;;2.60;;
52480;SDS011;38393;52.404;13.532;2023-06-01T03:37:26;5.80;;;2.57;;
52480;SDS011;38393;52.404;13.532;2023-06-01T03:39:52;6.53;;;2.80;;
52480;SDS011;38393;52.404;13.532;2023-06-01T03:42:17;4.70;;;2.60;;
52480;SDS011;38393;52.404;13.532;2023-06-01T03:44:44;5.70;;;3.00;;
52480;SDS011;38393;52.404;13.532;2023-06-01T03:47:10;8.40;;;3.03;;
52480;SDS011;38393;52.404;13.532;2023-06-01T03:49:35;4.43;;;2.87;;
52480;SDS011;38393;52.404;13.532;2023-06-01T03:52:01;5.93;;;2.70;;
52480;SDS011;38393;52.404;13.532;2023-06-01T03:54:26;5.07;;;2.90;;
52480;SDS011;38393;52.404;13.532;2023-06-01T03:56:52;6.17;;;3.10;;
52480;SDS011;38393;52.404;13.532;2023-06-01T03:59:17;10.53;;;3.50;;
52480;SDS011;38393;52.404;13.532;2023-06-01T04:01:43;8.77;;;3.90;;
52480;SDS011;38393;52.404;13.532;2023-06-01T04:04:08;7.53;;;3.33;;
52480;SDS011;38393;52.404;13.532;2023-06-01T04:06:34;6.97;;;3.60;;
52480;SDS011;38393;52.404;13.532;2023-06-01T04:09:03;8.80;;;3.60;;
52480;SDS011;38393;52.404;13.532;2023-06-01T04:11:34;12.80;;;3.20;;
52480;SDS011;38393;52.404;13.532;2023-06-01T04:14:00;6.53;;;3.43;;
52480;SDS011;38393;52.404;13.532;2023-06-01T04:16:25;7.80;;;4.07;;
52480;SDS011;38393;52.404;13.532;2023-06-01T04:18:51;9.13;;;3.80;;
52480;SDS011;38393;52.404;13.532;2023-06-01T04:21:19;9.10;;;4.17;;
52480;SDS011;38393;52.404;13.532;2023-06-01T04:23:45;7.73;;;4.00;;
52480;SDS011;38393;52.404;13.532;2023-06-01T04:26:11;10.70;;;4.33;;
52480;SDS011;38393;52.404;13.532;2023-06-01T04:28:36;10.17;;;4.50;;
52480;SDS011;38393;52.404;13.532;2023-06-01T04:31:08;7.73;;;4.00;;
52480;SDS011;38393;52.404;13.532;2023-06-01T04:33:42;8.10;;;4.03;;
52480;SDS011;38393;52.404;13.532;2023-06-01T04:36:09;7.77;;;4.40;;
52480;SDS011;38393;52.404;13.532;2023-06-01T04:38:36;9.63;;;4.00;;
52480;SDS011;38393;52.404;13.532;2023-06-01T04:41:05;8.80;;;4.13;;
52480;SDS011;38393;52.404;13.532;2023-06-01T04:43:32;8.07;;;3.67;;
52480;SDS011;38393;52.404;13.532;2023-06-01T04:45:57;9.13;;;4.37;;
52480;SDS011;38393;52.404;13.532;2023-06-01T04:48:28;14.17;;;4.60;;
52480;SDS011;38393;52.404;13.532;2023-06-01T04:50:55;8.30;;;4.57;;
52480;SDS011;38393;52.404;13.532;2023-06-01T04:53:22;10.87;;;4.73;;
52480;SDS011;38393;52.404;13.532;2023-06-01T04:55:48;9.43;;;4.10;;
52480;SDS011;38393;52.404;13.532;2023-06-01T04:58:13;14.77;;;4.57;;
52480;SDS011;38393;52.404;13.532;2023-06-01T05:00:39;9.77;;;4.20;;
52480;SDS011;38393;52.404;13.532;2023-06-01T05:03:04;11.97;;;4.77;;
52480;SDS011;38393;52.404;13.532;2023-06-01T05:05:30;9.73;;;4.87;;
52480;SDS011;38393;52.404;13.532;2023-06-01T05:07:55;12.67;;;5.20;;
52480;SDS011;38393;52.404;13.532;2023-06-01T05:10:21;16.23;;;5.73;;
52480;SDS011;38393;52.404;13.532;2023-06-01T05:12:46;18.93;;;6.93;;
52480;SDS011;38393;52.404;13.532;2023-06-01T05:15:12;14.73;;;7.63;;
52480;SDS011;38393;52.404;13.532;2023-06-01T05:17:38;15.50;;;7.87;;
52480;SDS011;38393;52.404;13.532;2023-06-01T05:20:04;16.87;;;7.97;;
52480;SDS011;38393;52.404;13.532;2023-06-01T05:22:30;15.83;;;7.80;;
52480;SDS011;38393;52.404;13.532;2023-06-01T05:24:55;14.93;;;6.67;;
52480;SDS011;38393;52.404;13.532;2023-06-01T05:27:22;16.63;;;6.53;;
52480;SDS011;38393;52.404;13.532;2023-06-01T05:29:47;13.17;;;6.83;;
52480;SDS011;38393;52.404;13.532;2023-06-01T05:32:13;19.37;;;6.80;;
52480;SDS011;38393;52.404;13.532;2023-06-01T05:34:38;13.93;;;6.80;;
52480;SDS011;38393;52.404;13.532;2023-06-01T05:37:04;14.23;;;6.63;;
52480;SDS011;38393;52.404;13.532;2023-06-01T05:39:30;12.27;;;6.13;;
52480;SDS011;38393;52.404;13.532;2023-06-01T05:41:55;18.87;;;6.80;;
52480;SDS011;38393;52.404;13.532;2023-06-01T05:44:21;13.67;;;6.60;;
52480;SDS011;38393;52.404;13.532;2023-06-01T05:46:46;15.20;;;6.83;;
52480;SDS011;38393;52.404;13.532;2023-06-01T05:49:12;13.87;;;6.73;;
52480;SDS011;38393;52.404;13.532;2023-06-01T05:51:38;14.03;;;6.60;;
52480;SDS011;38393;52.404;13.532;2023-06-01T05:54:05;15.50;;;6.80;;
52480;SDS011;38393;52.404;13.532;2023-06-01T05:56:31;13.80;;;6.40;;
52480;SDS011;38393;52.404;13.532;2023-06-01T05:58:57;14.53;;;7.07;;
52480;SDS011;38393;52.404;13.532;2023-06-01T06:01:23;14.67;;;6.50;;
52480;SDS011;38393;52.404;13.532;2023-06-01T06:03:49;13.87;;;6.47;;
52480;SDS011;38393;52.404;13.532;2023-06-01T06:06:15;17.47;;;6.57;;
52480;SDS011;38393;52.404;13.532;2023-06-01T06:08:42;15.37;;;6.87;;
52480;SDS011;38393;52.404;13.532;2023-06-01T06:11:07;14.73;;;6.40;;
52480;SDS011;38393;52.404;13.532;2023-06-01T06:13:33;14.83;;;6.53;;
52480;SDS011;38393;52.404;13.532;2023-06-01T06:15:58;16.67;;;6.07;;
52480;SDS011;38393;52.404;13.532;2023-06-01T06:18:23;13.27;;;6.60;;
52480;SDS011;38393;52.404;13.532;2023-06-01T06:20:49;12.20;;;5.87;;
52480;SDS011;38393;52.404;13.532;2023-06-01T06:23:14;15.17;;;5.87;;
52480;SDS011;38393;52.404;13.532;2023-06-01T06:25:40;11.73;;;5.77;;
52480;SDS011;38393;52.404;13.532;2023-06-01T06:28:05;12.83;;;5.90;;
52480;SDS011;38393;52.404;13.532;2023-06-01T06:30:31;14.50;;;5.50;;
52480;SDS011;38393;52.404;13.532;2023-06-01T06:32:57;11.97;;;5.40;;
52480;SDS011;38393;52.404;13.532;2023-06-01T06:35:22;11.60;;;5.73;;
52480;SDS011;38393;52.404;13.532;2023-06-01T06:37:48;9.33;;;5.53;;
52480;SDS011;38393;52.404;13.532;2023-06-01T06:40:13;12.33;;;5.30;;
52480;SDS011;38393;52.404;13.532;2023-06-01T06:42:39;14.50;;;5.40;;
52480;SDS011;38393;52.404;13.532;2023-06-01T06:45:05;10.77;;;4.80;;
52480;SDS011;38393;52.404;13.532;2023-06-01T06:47:31;14.00;;;5.23;;
52480;SDS011;38393;52.404;13.532;2023-06-01T06:49:57;10.37;;;4.80;;
52480;SDS011;38393;52.404;13.532;2023-06-01T06:52:22;11.93;;;4.60;;
52480;SDS011;38393;52.404;13.532;2023-06-01T06:54:48;9.10;;;5.03;;
52480;SDS011;38393;52.404;13.532;2023-06-01T06:57:13;12.93;;;5.43;;
52480;SDS011;38393;52.404;13.532;2023-06-01T06:59:39;12.57;;;5.10;;
52480;SDS011;38393;52.404;13.532;2023-06-01T07:02:04;10.03;;;4.97;;
52480;SDS011;38393;52.404;13.532;2023-06-01T07:04:30;11.57;;;5.43;;
52480;SDS011;38393;52.404;13.532;2023-06-01T07:06:56;10.57;;;4.57;;
52480;SDS011;38393;52.404;13.532;2023-06-01T07:09:21;8.87;;;4.70;;
52480;SDS011;38393;52.404;13.532;2023-06-01T07:11:47;8.57;;;4.50;;
52480;SDS011;38393;52.404;13.532;2023-06-01T07:14:13;8.33;;;4.30;;
52480;SDS011;38393;52.404;13.532;2023-06-01T07:16:39;7.97;;;4.30;;
52480;SDS011;38393;52.404;13.532;2023-06-01T07:19:04;12.47;;;5.20;;
52480;SDS011;38393;52.404;13.532;2023-06-01T07:21:30;10.10;;;4.50;;
52480;SDS011;38393;52.404;13.532;2023-06-01T07:23:55;8.57;;;4.67;;
52480;SDS011;38393;52.404;13.532;2023-06-01T07:26:21;10.07;;;4.90;;
52480;SDS011;38393;52.404;13.532;2023-06-01T07:28:50;9.40;;;4.70;;
52480;SDS011;38393;52.404;13.532;2023-06-01T07:31:18;9.73;;;4.40;;
52480;SDS011;38393;52.404;13.532;2023-06-01T07:33:44;10.07;;;4.67;;
52480;SDS011;38393;52.404;13.532;2023-06-01T07:36:09;10.50;;;4.40;;
52480;SDS011;38393;52.404;13.532;2023-06-01T07:38:35;8.73;;;4.43;;
52480;SDS011;38393;52.404;13.532;2023-06-01T07:41:00;11.17;;;4.20;;
52480;SDS011;38393;52.404;13.532;2023-06-01T07:43:26;7.33;;;4.37;;
52480;SDS011;38393;52.404;13.532;2023-06-01T07:45:51;7.60;;;4.40;;
52480;SDS011;38393;52.404;13.532;2023-06-01T07:48:17;9.77;;;4.00;;
52480;SDS011;38393;52.404;13.532;2023-06-01T07:50:42;12.13;;;4.57;;
52480;SDS011;38393;52.404;13.532;2023-06-01T07:53:08;8.37;;;4.40;;
52480;SDS011;38393;52.404;13.532;2023-06-01T07:55:34;6.37;;;3.70;;
52480;SDS011;38393;52.404;13.532;2023-06-01T07:57:59;11.60;;;4.40;;
52480;SDS011;38393;52.404;13.532;2023-06-01T08:00:25;8.23;;;4.40;;
52480;SDS011;38393;52.404;13.532;2023-06-01T08:02:51;8.47;;;3.83;;
52480;SDS011;38393;52.404;13.532;2023-06-01T08:05:17;7.50;;;4.00;;
52480;SDS011;38393;52.404;13.532;2023-06-01T08:07:43;10.27;;;4.27;;
52480;SDS011;38393;52.404;13.532;2023-06-01T08:10:11;7.17;;;4.03;;
52480;SDS011;38393;52.404;13.532;2023-06-01T08:12:37;10.73;;;4.07;;
52480;SDS011;38393;52.404;13.532;2023-06-01T08:15:03;8.67;;;4.27;;
52480;SDS011;38393;52.404;13.532;2023-06-01T08:17:29;9.03;;;4.13;;
52480;SDS011;38393;52.404;13.532;2023-06-01T08:19:55;14.60;;;3.87;;
52480;SDS011;38393;52.404;13.532;2023-06-01T08:22:22;10.07;;;4.60;;
52480;SDS011;38393;52.404;13.532;2023-06-01T08:24:48;8.17;;;3.73;;
52480;SDS011;38393;52.404;13.532;2023-06-01T08:27:20;9.90;;;4.17;;
52480;SDS011;38393;52.404;13.532;2023-06-01T08:29:48;8.30;;;3.87;;
52480;SDS011;38393;52.404;13.532;2023-06-01T08:32:14;6.60;;;3.63;;
52480;SDS011;38393;52.404;13.532;2023-06-01T08:34:42;7.77;;;3.23;;
52480;SDS011;38393;52.404;13.532;2023-06-01T08:37:08;7.17;;;4.00;;
52480;SDS011;38393;52.404;13.532;2023-06-01T08:39:34;6.77;;;3.77;;
52480;SDS011;38393;52.404;13.532;2023-06-01T08:44:45;9.73;;;4.00;;
52480;SDS011;38393;52.404;13.532;2023-06-01T08:47:11;6.90;;;3.72;;
52480;SDS011;38393;52.404;13.532;2023-06-01T08:49:38;6.43;;;3.40;;
52480;SDS011;38393;52.404;13.532;2023-06-01T08:52:08;9.00;;;4.47;;
52480;SDS011;38393;52.404;13.532;2023-06-01T08:54:37;9.70;;;4.07;;
52480;SDS011;38393;52.404;13.532;2023-06-01T08:57:04;7.10;;;3.72;;
52480;SDS011;38393;52.404;13.532;2023-06-01T08:59:32;9.25;;;3.65;;
52480;SDS011;38393;52.404;13.532;2023-06-01T09:01:59;7.10;;;3.92;;
52480;SDS011;38393;52.404;13.532;2023-06-01T09:04:25;8.40;;;3.40;;
52480;SDS011;38393;52.404;13.532;2023-06-01T09:06:51;12.00;;;3.63;;
52480;SDS011;38393;52.404;13.532;2023-06-01T09:09:17;9.85;;;4.03;;
52480;SDS011;38393;52.404;13.532;2023-06-01T09:11:43;8.27;;;3.80;;
52480;SDS011;38393;52.404;13.532;2023-06-01T09:14:21;9.43;;;4.10;;
52480;SDS011;38393;52.404;13.532;2023-06-01T09:16:48;10.80;;;4.03;;
52480;SDS011;38393;52.404;13.532;2023-06-01T09:19:14;7.50;;;3.83;;
52480;SDS011;38393;52.404;13.532;2023-06-01T09:21:41;7.05;;;3.63;;
52480;SDS011;38393;52.404;13.532;2023-06-01T09:24:24;10.52;;;3.88;;
52480;SDS011;38393;52.404;13.532;2023-06-01T09:26:51;13.27;;;4.15;;
52480;SDS011;38393;52.404;13.532;2023-06-01T09:29:22;9.77;;;3.92;;
52480;SDS011;38393;52.404;13.532;2023-06-01T09:31:47;10.05;;;3.75;;
52480;SDS011;38393;52.404;13.532;2023-06-01T09:34:14;8.70;;;3.83;;
52480;SDS011;38393;52.404;13.532;2023-06-01T09:36:41;5.97;;;3.63;;
52480;SDS011;38393;52.404;13.532;2023-06-01T09:39:08;7.35;;;3.13;;
52480;SDS011;38393;52.404;13.532;2023-06-01T09:44:37;7.60;;;3.58;;
52480;SDS011;38393;52.404;13.532;2023-06-01T09:47:05;9.68;;;3.88;;
52480;SDS011;38393;52.404;13.532;2023-06-01T09:49:35;6.50;;;3.75;;
52480;SDS011;38393;52.404;13.532;2023-06-01T09:54:29;7.22;;;3.80;;
52480;SDS011;38393;52.404;13.532;2023-06-01T09:57:22;6.38;;;3.60;;
52480;SDS011;38393;52.404;13.532;2023-06-01T09:59:54;8.90;;;3.80;;
52480;SDS011;38393;52.404;13.532;2023-06-01T10:02:20;10.23;;;4.15;;
52480;SDS011;38393;52.404;13.532;2023-06-01T10:04:48;6.88;;;3.75;;
52480;SDS011;38393;52.404;13.532;2023-06-01T10:07:14;7.88;;;3.92;;
52480;SDS011;38393;52.404;13.532;2023-06-01T10:09:41;9.48;;;4.22;;
52480;SDS011;38393;52.404;13.532;2023-06-01T10:12:08;8.25;;;4.00;;
52480;SDS011;38393;52.404;13.532;2023-06-01T10:14:35;8.52;;;4.35;;
52480;SDS011;38393;52.404;13.532;2023-06-01T10:17:03;9.82;;;4.70;;
52480;SDS011;38393;52.404;13.532;2023-06-01T10:19:29;8.57;;;4.68;;
52480;SDS011;38393;52.404;13.532;2023-06-01T10:21:58;10.35;;;4.40;;
52480;SDS011;38393;52.404;13.532;2023-06-01T10:24:25;9.32;;;4.88;;
52480;SDS011;38393;52.404;13.532;2023-06-01T10:27:03;9.45;;;4.70;;
52480;SDS011;38393;52.404;13.532;2023-06-01T10:29:48;7.88;;;4.47;;
52480;SDS011;38393;52.404;13.532;2023-06-01T10:35:50;9.25;;;5.10;;
52480;SDS011;38393;52.404;13.532;2023-06-01T10:40:41;11.13;;;5.80;;
52480;SDS011;38393;52.404;13.532;2023-06-01T10:43:08;10.25;;;5.65;;
52480;SDS011;38393;52.404;13.532;2023-06-01T10:48:56;11.52;;;6.28;;
52480;SDS011;38393;52.404;13.532;2023-06-01T10:51:22;10.57;;;6.13;;
52480;SDS011;38393;52.404;13.532;2023-06-01T10:53:53;10.23;;;5.72;;
52480;SDS011;38393;52.404;13.532;2023-06-01T10:56:19;10.93;;;6.70;;
52480;SDS011;38393;52.404;13.532;2023-06-01T10:58:47;10.75;;;6.38;;
52480;SDS011;38393;52.404;13.532;2023-06-01T11:01:33;12.35;;;6.43;;
52480;SDS011;38393;52.404;13.532;2023-06-01T11:04:00;11.07;;;6.18;;
52480;SDS011;38393;52.404;13.532;2023-06-01T11:06:34;11.82;;;6.15;;
52480;SDS011;38393;52.404;13.532;2023-06-01T11:09:03;10.20;;;6.13;;
52480;SDS011;38393;52.404;13.532;2023-06-01T11:14:15;15.75;;;6.55;;
52480;SDS011;38393;52.404;13.532;2023-06-01T11:16:43;13.57;;;7.20;;
52480;SDS011;38393;52.404;13.532;2023-06-01T11:19:10;13.75;;;6.22;;
52480;SDS011;38393;52.404;13.532;2023-06-01T11:21:42;9.82;;;6.45;;
52480;SDS011;38393;52.404;13.532;2023-06-01T11:24:12;13.13;;;6.85;;
52480;SDS011;38393;52.404;13.532;2023-06-01T11:26:43;14.73;;;6.90;;
52480;SDS011;38393;52.404;13.532;2023-06-01T11:29:11;11.45;;;6.38;;
52480;SDS011;38393;52.404;13.532;2023-06-01T11:31:39;13.07;;;6.50;;
52480;SDS011;38393;52.404;13.532;2023-06-01T11:34:07;12.93;;;6.70;;
52480;SDS011;38393;52.404;13.532;2023-06-01T11:36:37;12.90;;;6.10;;
52480;SDS011;38393;52.404;13.532;2023-06-01T11:39:15;9.65;;;5.78;;
52480;SDS011;38393;52.404;13.532;2023-06-01T11:41:52;13.38;;;5.50;;
52480;SDS011;38393;52.404;13.532;2023-06-01T11:44:32;10.68;;;5.78;;
52480;SDS011;38393;52.404;13.532;2023-06-01T11:46:58;13.00;;;5.95;;
52480;SDS011;38393;52.404;13.532;2023-06-01T11:49:24;13.05;;;6.30;;
52480;SDS011;38393;52.404;13.532;2023-06-01T11:51:50;12.70;;;5.80;;
52480;SDS011;38393;52.404;13.532;2023-06-01T11:54:16;10.77;;;6.00;;
52480;SDS011;38393;52.404;13.532;2023-06-01T11:56:53;9.48;;;5.85;;
52480;SDS011;38393;52.404;13.532;2023-06-01T11:59:20;8.57;;;5.32;;
52480;SDS011;38393;52.404;13.532;2023-06-01T12:01:46;10.57;;;5.13;;
52480;SDS011;38393;52.404;13.532;2023-06-01T12:04:16;9.40;;;5.55;;
52480;SDS011;38393;52.404;13.532;2023-06-01T12:06:44;11.05;;;4.70;;
52480;SDS011;38393;52.404;13.532;2023-06-01T12:09:10;10.00;;;5.10;;
52480;SDS011;38393;52.404;13.532;2023-06-01T12:11:36;7.82;;;4.78;;
52480;SDS011;38393;52.404;13.532;2023-06-01T12:14:03;12.70;;;5.00;;
52480;SDS011;38393;52.404;13.532;2023-06-01T12:19:19;8.15;;;4.22;;
52480;SDS011;38393;52.404;13.532;2023-06-01T12:21:46;14.60;;;4.22;;
52480;SDS011;38393;52.404;13.532;2023-06-01T12:24:14;11.60;;;4.32;;
52480;SDS011;38393;52.404;13.532;2023-06-01T12:26:39;9.35;;;4.00;;
52480;SDS011;38393;52.404;13.532;2023-06-01T12:29:05;8.02;;;4.68;;
52480;SDS011;38393;52.404;13.532;2023-06-01T12:31:31;8.80;;;4.30;;
52480;SDS011;38393;52.404;13.532;2023-06-01T12:33:57;8.45;;;4.15;;
52480;SDS011;38393;52.404;13.532;2023-06-01T12:38:56;9.43;;;3.95;;
52480;SDS011;38393;52.404;13.532;2023-06-01T12:41:23;8.45;;;4.20;;
52480;SDS011;38393;52.404;13.532;2023-06-01T12:43:50;5.03;;;3.45;;
52480;SDS011;38393;52.404;13.532;2023-06-01T12:46:19;7.43;;;4.20;;
52480;SDS011;38393;52.404;13.532;2023-06-01T12:48:48;8.52;;;4.00;;
52480;SDS011;38393;52.404;13.532;2023-06-01T12:51:14;15.02;;;3.72;;
52480;SDS011;38393;52.404;13.532;2023-06-01T12:53:40;8.32;;;3.75;;
52480;SDS011;38393;52.404;13.532;2023-06-01T12:56:10;6.63;;;3.92;;
52480;SDS011;38393;52.404;13.532;2023-06-01T12:58:36;7.03;;;3.63;;
52480;SDS011;38393;52.404;13.532;2023-06-01T13:01:02;10.70;;;3.45;;
52480;SDS011;38393;52.404;13.532;2023-06-01T13:03:28;7.38;;;3.42;;
52480;SDS011;38393;52.404;13.532;2023-06-01T13:05:54;9.48;;;3.80;;
52480;SDS011;38393;52.404;13.532;2023-06-01T13:08:20;6.70;;;3.65;;
52480;SDS011;38393;52.404;13.532;2023-06-01T13:10:47;7.55;;;3.47;;
52480;SDS011;38393;52.404;13.532;2023-06-01T13:13:12;8.13;;;3.55;;
52480;SDS011;38393;52.404;13.532;2023-06-01T13:15:41;9.82;;;3.60;;
52480;SDS011;38393;52.404;13.532;2023-06-01T13:18:07;7.15;;;3.65;;
52480;SDS011;38393;52.404;13.532;2023-06-01T13:20:34;7.47;;;3.38;;
52480;SDS011;38393;52.404;13.532;2023-06-01T13:23:00;6.47;;;3.40;;
52480;SDS011;38393;52.404;13.532;2023-06-01T13:25:26;7.82;;;3.50;;
52480;SDS011;38393;52.404;13.532;2023-06-01T13:27:52;7.57;;;3.97;;
52480;SDS011;38393;52.404;13.532;2023-06-01T13:30:18;7.43;;;3.70;;
52480;SDS011;38393;52.404;13.532;2023-06-01T13:32:43;5.47;;;3.08;;
52480;SDS011;38393;52.404;13.532;2023-06-01T13:35:09;5.65;;;2.78;;
52480;SDS011;38393;52.404;13.532;2023-06-01T13:37:36;9.02;;;3.47;;
52480;SDS011;38393;52.404;13.532;2023-06-01T13:40:02;6.80;;;3.33;;
52480;SDS011;38393;52.404;13.532;2023-06-01T13:42:29;7.80;;;3.13;;
52480;SDS011;38393;52.404;13.532;2023-06-01T13:44:55;6.70;;;2.70;;
52480;SDS011;38393;52.404;13.532;2023-06-01T13:47:21;4.30;;;2.60;;
52480;SDS011;38393;52.404;13.532;2023-06-01T13:49:47;5.10;;;2.75;;
52480;SDS011;38393;52.404;13.532;2023-06-01T13:52:12;4.15;;;2.55;;
52480;SDS011;38393;52.404;13.532;2023-06-01T13:54:38;5.18;;;3.10;;
52480;SDS011;38393;52.404;13.532;2023-06-01T13:57:03;5.70;;;2.90;;
52480;SDS011;38393;52.404;13.532;2023-06-01T13:59:30;6.07;;;2.80;;
52480;SDS011;38393;52.404;13.532;2023-06-01T14:01:59;11.07;;;3.85;;
52480;SDS011;38393;52.404;13.532;2023-06-01T14:04:24;7.97;;;3.42;;
52480;SDS011;38393;52.404;13.532;2023-06-01T14:06:50;5.78;;;3.53;;
52480;SDS011;38393;52.404;13.532;2023-06-01T14:09:18;6.00;;;3.22;;
52480;SDS011;38393;52.404;13.532;2023-06-01T14:11:44;5.57;;;3.20;;
52480;SDS011;38393;52.404;13.532;2023-06-01T14:14:09;8.07;;;3.30;;
52480;SDS011;38393;52.404;13.532;2023-06-01T14:16:35;7.57;;;3.05;;
52480;SDS011;38393;52.404;13.532;2023-06-01T14:19:00;8.32;;;3.17;;
52480;SDS011;38393;52.404;13.532;2023-06-01T14:21:26;4.97;;;3.15;;
52480;SDS011;38393;52.404;13.532;2023-06-01T14:23:53;6.95;;;3.15;;
52480;SDS011;38393;52.404;13.532;2023-06-01T14:26:19;6.30;;;2.70;;
52480;SDS011;38393;52.404;13.532;2023-06-01T14:28:45;5.20;;;3.22;;
52480;SDS011;38393;52.404;13.532;2023-06-01T14:31:11;6.10;;;3.40;;
52480;SDS011;38393;52.404;13.532;2023-06-01T14:33:37;5.82;;;3.03;;
52480;SDS011;38393;52.404;13.532;2023-06-01T14:36:02;6.38;;;3.28;;
52480;SDS011;38393;52.404;13.532;2023-06-01T14:38:29;6.40;;;3.35;;
52480;SDS011;38393;52.404;13.532;2023-06-01T14:40:55;6.32;;;2.88;;
52480;SDS011;38393;52.404;13.532;2023-06-01T14:43:20;6.65;;;3.17;;
52480;SDS011;38393;52.404;13.532;2023-06-01T14:45:46;7.75;;;3.28;;
52480;SDS011;38393;52.404;13.532;2023-06-01T14:48:11;6.78;;;3.25;;
52480;SDS011;38393;52.404;13.532;2023-06-01T14:50:37;5.40;;;2.67;;
52480;SDS011;38393;52.404;13.532;2023-06-01T14:53:02;5.70;;;3.20;;
52480;SDS011;38393;52.404;13.532;2023-06-01T14:55:28;5.70;;;3.40;;
52480;SDS011;38393;52.404;13.532;2023-06-01T14:57:54;5.82;;;3.03;;
52480;SDS011;38393;52.404;13.532;2023-06-01T15:00:19;6.68;;;3.45;;